sensor_id;sensor_type;location;lat;lon;timestamp;P1;durP1;ratioP1;P2;durP2;ratioP2
11811;SDS011;5963;50.184;9.162;2023-02-03T00:02:28;1.80;;;0.30;;
11811;SDS011;5963;50.184;9.162;2023-02-03T00:04:58;1.70;;;0.30;;
11811;SDS011;5963;50.184;9.162;2023-02-03T00:07:28;1.80;;;0.30;;
11811;SDS011;5963;50.184;9.162;2023-02-03T00:09:59;1.70;;;0.30;;
11811;SDS011;5963;50.184;9.162;2023-02-03T00:12:29;1.70;;;0.30;;
11811;SDS011;5963;50.184;9.162;2023-02-03T00:14:59;1.77;;;0.30;;
11811;SDS011;5963;50.184;9.162;2023-02-03T00:17:30;1.70;;;0.30;;
11811;SDS011;5963;50.184;9.162;2023-02-03T00:19:59;1.80;;;0.30;;
11811;SDS011;5963;50.184;9.162;2023-02-03T00:22:29;1.80;;;0.30;;
11811;SDS011;5963;50.184;9.162;2023-02-03T00:25:00;1.70;;;0.30;;
11811;SDS011;5963;50.184;9.162;2023-02-03T00:27:30;1.70;;;0.30;;
11811;SDS011;5963;50.184;9.162;2023-02-03T00:30:00;1.60;;;0.30;;
11811;SDS011;5963;50.184;9.162;2023-02-03T00:32:30;1.60;;;0.30;;
11811;SDS011;5963;50.184;9.162;2023-02-03T00:34:59;1.70;;;0.30;;
11811;SDS011;5963;50.184;9.162;2023-02-03T00:37:29;1.70;;;0.30;;
11811;SDS011;5963;50.184;9.162;2023-02-03T00:40:01;1.60;;;0.30;;
11811;SDS011;5963;50.184;9.162;2023-02-03T00:42:31;1.70;;;0.30;;
11811;SDS011;5963;50.184;9.162;2023-02-03T00:45:02;1.60;;;0.30;;
11811;SDS011;5963;50.184;9.162;2023-02-03T00:47:33;2.10;;;0.30;;
11811;SDS011;5963;50.184;9.162;2023-02-03T00:50:03;1.80;;;0.30;;
11811;SDS011;5963;50.184;9.162;2023-02-03T00:52:34;1.77;;;0.30;;
11811;SDS011;5963;50.184;9.162;2023-02-03T00:55:06;1.80;;;0.30;;
11811;SDS011;5963;50.184;9.162;2023-02-03T00:57:34;1.70;;;0.30;;
11811;SDS011;5963;50.184;9.162;2023-02-03T01:00:04;1.60;;;0.30;;
11811;SDS011;5963;50.184;9.162;2023-02-03T01:02:36;1.70;;;0.30;;
11811;SDS011;5963;50.184;9.162;2023-02-03T01:05:06;1.60;;;0.30;;
11811;SDS011;5963;50.184;9.162;2023-02-03T01:07:38;1.60;;;0.30;;
11811;SDS011;5963;50.184;9.162;2023-02-03T01:10:09;1.60;;;0.30;;
11811;SDS011;5963;50.184;9.162;2023-02-03T01:12:41;1.60;;;0.30;;
11811;SDS011;5963;50.184;9.162;2023-02-03T01:15:10;1.60;;;0.30;;
11811;SDS011;5963;50.184;9.162;2023-02-03T01:17:42;1.60;;;0.30;;
11811;SDS011;5963;50.184;9.162;2023-02-03T01:20:12;1.60;;;0.30;;
11811;SDS011;5963;50.184;9.162;2023-02-03T01:22:42;1.60;;;0.30;;
11811;SDS011;5963;50.184;9.162;2023-02-03T01:25:13;1.60;;;0.30;;
11811;SDS011;5963;50.184;9.162;2023-02-03T01:27:43;1.60;;;0.30;;
11811;SDS011;5963;50.184;9.162;2023-02-03T01:30:13;1.50;;;0.30;;
11811;SDS011;5963;50.184;9.162;2023-02-03T01:32:45;1.50;;;0.30;;
11811;SDS011;5963;50.184;9.162;2023-02-03T01:35:15;1.40;;;0.30;;
11811;SDS011;5963;50.184;9.162;2023-02-03T01:37:44;1.40;;;0.30;;
11811;SDS011;5963;50.184;9.162;2023-02-03T01:40:17;1.40;;;0.30;;
11811;SDS011;5963;50.184;9.162;2023-02-03T01:42:47;1.40;;;0.30;;
11811;SDS011;5963;50.184;9.162;2023-02-03T01:45:17;1.40;;;0.30;;
11811;SDS011;5963;50.184;9.162;2023-02-03T01:47:48;1.40;;;0.30;;
11811;SDS011;5963;50.184;9.162;2023-02-03T01:50:22;1.50;;;0.30;;
11811;SDS011;5963;50.184;9.162;2023-02-03T01:52:55;1.40;;;0.30;;
11811;SDS011;5963;50.184;9.162;2023-02-03T01:55:30;1.40;;;0.30;;
11811;SDS011;5963;50.184;9.162;2023-02-03T01:58:06;1.40;;;0.30;;
11811;SDS011;5963;50.184;9.162;2023-02-03T02:00:40;1.40;;;0.30;;
11811;SDS011;5963;50.184;9.162;2023-02-03T02:03:10;1.40;;;0.30;;
11811;SDS011;5963;50.184;9.162;2023-02-03T02:05:41;1.40;;;0.30;;
11811;SDS011;5963;50.184;9.162;2023-02-03T02:08:15;1.40;;;0.30;;
11811;SDS011;5963;50.184;9.162;2023-02-03T02:10:49;1.40;;;0.30;;
11811;SDS011;5963;50.184;9.162;2023-02-03T02:13:20;1.40;;;0.30;;
11811;SDS011;5963;50.184;9.162;2023-02-03T02:15:51;1.40;;;0.30;;
11811;SDS011;5963;50.184;9.162;2023-02-03T02:18:29;1.40;;;0.30;;
11811;SDS011;5963;50.184;9.162;2023-02-03T02:27:31;1.20;;;0.30;;
11811;SDS011;5963;50.184;9.162;2023-02-03T02:30:35;0.10;;;0.10;;
11811;SDS011;5963;50.184;9.162;2023-02-03T02:33:18;1.13;;;0.30;;
11811;SDS011;5963;50.184;9.162;2023-02-03T02:35:56;0.90;;;0.30;;
11811;SDS011;5963;50.184;9.162;2023-02-03T02:38:35;0.70;;;0.30;;
11811;SDS011;5963;50.184;9.162;2023-02-03T02:41:09;0.60;;;0.30;;
11811;SDS011;5963;50.184;9.162;2023-02-03T02:43:45;0.50;;;0.20;;
11811;SDS011;5963;50.184;9.162;2023-02-03T02:46:23;0.40;;;0.20;;
11811;SDS011;5963;50.184;9.162;2023-02-03T02:49:00;0.40;;;0.20;;
11811;SDS011;5963;50.184;9.162;2023-02-03T02:51:33;0.30;;;0.20;;
11811;SDS011;5963;50.184;9.162;2023-02-03T02:54:05;0.20;;;0.20;;
11811;SDS011;5963;50.184;9.162;2023-02-03T02:56:39;0.20;;;0.20;;
11811;SDS011;5963;50.184;9.162;2023-02-03T02:59:11;0.20;;;0.20;;
11811;SDS011;5963;50.184;9.162;2023-02-03T03:01:43;0.20;;;0.20;;
11811;SDS011;5963;50.184;9.162;2023-02-03T03:04:16;0.20;;;0.20;;
11811;SDS011;5963;50.184;9.162;2023-02-03T03:06:50;0.10;;;0.10;;
11811;SDS011;5963;50.184;9.162;2023-02-03T03:09:25;0.10;;;0.10;;
11811;SDS011;5963;50.184;9.162;2023-02-03T03:12:01;0.10;;;0.10;;
11811;SDS011;5963;50.184;9.162;2023-02-03T03:14:36;0.10;;;0.10;;
11811;SDS011;5963;50.184;9.162;2023-02-03T03:17:11;0.10;;;0.10;;
11811;SDS011;5963;50.184;9.162;2023-02-03T03:19:48;0.10;;;0.10;;
11811;SDS011;5963;50.184;9.162;2023-02-03T03:22:21;0.10;;;0.10;;
11811;SDS011;5963;50.184;9.162;2023-02-03T03:24:56;0.10;;;0.10;;
11811;SDS011;5963;50.184;9.162;2023-02-03T03:27:30;0.10;;;0.10;;
11811;SDS011;5963;50.184;9.162;2023-02-03T03:30:04;0.10;;;0.10;;
11811;SDS011;5963;50.184;9.162;2023-02-03T03:32:37;0.10;;;0.10;;
11811;SDS011;5963;50.184;9.162;2023-02-03T03:35:08;0.10;;;0.10;;
11811;SDS011;5963;50.184;9.162;2023-02-03T03:37:40;0.10;;;0.10;;
11811;SDS011;5963;50.184;9.162;2023-02-03T03:40:14;0.10;;;0.10;;
11811;SDS011;5963;50.184;9.162;2023-02-03T03:42:47;0.10;;;0.10;;
11811;SDS011;5963;50.184;9.162;2023-02-03T03:45:22;0.10;;;0.10;;
11811;SDS011;5963;50.184;9.162;2023-02-03T03:47:55;0.10;;;0.10;;
11811;SDS011;5963;50.184;9.162;2023-02-03T03:50:33;0.10;;;0.10;;
11811;SDS011;5963;50.184;9.162;2023-02-03T03:53:05;0.10;;;0.10;;
11811;SDS011;5963;50.184;9.162;2023-02-03T03:55:36;0.10;;;0.10;;
11811;SDS011;5963;50.184;9.162;2023-02-03T03:58:09;0.10;;;0.10;;
11811;SDS011;5963;50.184;9.162;2023-02-03T04:00:41;0.10;;;0.10;;
11811;SDS011;5963;50.184;9.162;2023-02-03T04:03:14;0.10;;;0.10;;
11811;SDS011;5963;50.184;9.162;2023-02-03T04:05:49;0.10;;;0.10;;
11811;SDS011;5963;50.184;9.162;2023-02-03T04:08:19;0.10;;;0.10;;
11811;SDS011;5963;50.184;9.162;2023-02-03T04:10:49;0.10;;;0.10;;
11811;SDS011;5963;50.184;9.162;2023-02-03T04:13:19;0.10;;;0.10;;
11811;SDS011;5963;50.184;9.162;2023-02-03T04:15:49;0.10;;;0.10;;
11811;SDS011;5963;50.184;9.162;2023-02-03T04:18:18;0.10;;;0.10;;
11811;SDS011;5963;50.184;9.162;2023-02-03T04:20:50;0.10;;;0.10;;
11811;SDS011;5963;50.184;9.162;2023-02-03T04:23:19;0.10;;;0.10;;
11811;SDS011;5963;50.184;9.162;2023-02-03T04:25:49;0.10;;;0.10;;
11811;SDS011;5963;50.184;9.162;2023-02-03T04:28:19;0.10;;;0.10;;
11811;SDS011;5963;50.184;9.162;2023-02-03T04:30:49;0.90;;;0.20;;
11811;SDS011;5963;50.184;9.162;2023-02-03T04:33:18;1.08;;;0.20;;
11811;SDS011;5963;50.184;9.162;2023-02-03T04:35:49;1.90;;;0.30;;
11811;SDS011;5963;50.184;9.162;2023-02-03T04:38:19;2.65;;;0.50;;
11811;SDS011;5963;50.184;9.162;2023-02-03T04:40:49;0.80;;;0.20;;
11811;SDS011;5963;50.184;9.162;2023-02-03T04:43:18;0.00;;;0.00;;
11811;SDS011;5963;50.184;9.162;2023-02-03T04:45:48;1.00;;;0.30;;
11811;SDS011;5963;50.184;9.162;2023-02-03T04:48:18;0.90;;;0.30;;
11811;SDS011;5963;50.184;9.162;2023-02-03T04:50:49;1.50;;;0.30;;
11811;SDS011;5963;50.184;9.162;2023-02-03T04:53:19;1.60;;;0.30;;
11811;SDS011;5963;50.184;9.162;2023-02-03T04:55:49;1.60;;;0.30;;
11811;SDS011;5963;50.184;9.162;2023-02-03T04:58:19;1.60;;;0.30;;
11811;SDS011;5963;50.184;9.162;2023-02-03T05:00:49;1.60;;;0.30;;
11811;SDS011;5963;50.184;9.162;2023-02-03T05:03:18;1.60;;;0.30;;
11811;SDS011;5963;50.184;9.162;2023-02-03T05:05:52;1.60;;;0.30;;
11811;SDS011;5963;50.184;9.162;2023-02-03T05:08:24;1.90;;;0.40;;
11811;SDS011;5963;50.184;9.162;2023-02-03T05:10:54;1.60;;;0.30;;
11811;SDS011;5963;50.184;9.162;2023-02-03T05:13:27;1.45;;;0.30;;
11811;SDS011;5963;50.184;9.162;2023-02-03T05:15:57;1.70;;;0.50;;
11811;SDS011;5963;50.184;9.162;2023-02-03T05:18:29;1.60;;;0.30;;
11811;SDS011;5963;50.184;9.162;2023-02-03T05:20:59;1.90;;;0.30;;
11811;SDS011;5963;50.184;9.162;2023-02-03T05:23:29;1.60;;;0.30;;
11811;SDS011;5963;50.184;9.162;2023-02-03T05:26:02;1.70;;;0.50;;
11811;SDS011;5963;50.184;9.162;2023-02-03T05:28:32;1.70;;;0.30;;
11811;SDS011;5963;50.184;9.162;2023-02-03T05:31:02;1.60;;;0.30;;
11811;SDS011;5963;50.184;9.162;2023-02-03T05:33:32;1.60;;;0.30;;
11811;SDS011;5963;50.184;9.162;2023-02-03T05:36:03;1.70;;;0.30;;
11811;SDS011;5963;50.184;9.162;2023-02-03T05:38:34;1.80;;;0.50;;
11811;SDS011;5963;50.184;9.162;2023-02-03T05:41:04;1.70;;;0.30;;
11811;SDS011;5963;50.184;9.162;2023-02-03T05:43:52;1.60;;;0.30;;
11811;SDS011;5963;50.184;9.162;2023-02-03T05:46:22;1.60;;;0.30;;
11811;SDS011;5963;50.184;9.162;2023-02-03T05:48:52;1.90;;;0.80;;
11811;SDS011;5963;50.184;9.162;2023-02-03T05:51:23;1.60;;;0.40;;
11811;SDS011;5963;50.184;9.162;2023-02-03T05:53:53;1.60;;;0.30;;
11811;SDS011;5963;50.184;9.162;2023-02-03T05:56:24;1.90;;;0.30;;
11811;SDS011;5963;50.184;9.162;2023-02-03T05:58:53;1.70;;;0.30;;
11811;SDS011;5963;50.184;9.162;2023-02-03T06:01:23;1.70;;;0.30;;
11811;SDS011;5963;50.184;9.162;2023-02-03T06:03:53;4.00;;;0.50;;
11811;SDS011;5963;50.184;9.162;2023-02-03T06:06:25;1.80;;;0.30;;
11811;SDS011;5963;50.184;9.162;2023-02-03T06:08:59;1.80;;;0.30;;
11811;SDS011;5963;50.184;9.162;2023-02-03T06:11:30;1.70;;;0.30;;
11811;SDS011;5963;50.184;9.162;2023-02-03T06:14:02;1.70;;;0.30;;
11811;SDS011;5963;50.184;9.162;2023-02-03T06:16:32;2.00;;;0.40;;
11811;SDS011;5963;50.184;9.162;2023-02-03T06:19:04;1.80;;;0.30;;
11811;SDS011;5963;50.184;9.162;2023-02-03T06:21:34;1.70;;;0.30;;
11811;SDS011;5963;50.184;9.162;2023-02-03T06:24:05;1.70;;;0.30;;
11811;SDS011;5963;50.184;9.162;2023-02-03T06:26:36;1.70;;;0.30;;
11811;SDS011;5963;50.184;9.162;2023-02-03T06:29:05;1.70;;;0.30;;
11811;SDS011;5963;50.184;9.162;2023-02-03T06:31:35;1.80;;;0.50;;
11811;SDS011;5963;50.184;9.162;2023-02-03T06:34:05;1.70;;;0.30;;
11811;SDS011;5963;50.184;9.162;2023-02-03T06:36:36;1.70;;;0.30;;
11811;SDS011;5963;50.184;9.162;2023-02-03T06:39:06;1.47;;;0.20;;
11811;SDS011;5963;50.184;9.162;2023-02-03T06:41:36;2.20;;;0.30;;
11811;SDS011;5963;50.184;9.162;2023-02-03T06:44:06;2.30;;;0.30;;
11811;SDS011;5963;50.184;9.162;2023-02-03T06:46:36;0.60;;;0.30;;
11811;SDS011;5963;50.184;9.162;2023-02-03T06:49:06;1.20;;;0.30;;
11811;SDS011;5963;50.184;9.162;2023-02-03T06:51:37;1.20;;;0.30;;
11811;SDS011;5963;50.184;9.162;2023-02-03T06:54:07;1.60;;;0.50;;
11811;SDS011;5963;50.184;9.162;2023-02-03T06:56:37;2.72;;;0.30;;
11811;SDS011;5963;50.184;9.162;2023-02-03T06:59:07;4.00;;;0.40;;
11811;SDS011;5963;50.184;9.162;2023-02-03T07:01:36;0.98;;;0.20;;
11811;SDS011;5963;50.184;9.162;2023-02-03T07:04:07;0.40;;;0.20;;
11811;SDS011;5963;50.184;9.162;2023-02-03T07:06:37;0.75;;;0.20;;
11811;SDS011;5963;50.184;9.162;2023-02-03T07:09:07;0.60;;;0.40;;
11811;SDS011;5963;50.184;9.162;2023-02-03T07:11:37;0.40;;;0.20;;
11811;SDS011;5963;50.184;9.162;2023-02-03T07:14:07;0.40;;;0.20;;
11811;SDS011;5963;50.184;9.162;2023-02-03T07:16:37;0.40;;;0.22;;
11811;SDS011;5963;50.184;9.162;2023-02-03T07:19:08;0.40;;;0.20;;
11811;SDS011;5963;50.184;9.162;2023-02-03T07:21:40;0.40;;;0.30;;
11811;SDS011;5963;50.184;9.162;2023-02-03T07:24:09;0.40;;;0.30;;
11811;SDS011;5963;50.184;9.162;2023-02-03T07:26:39;0.50;;;0.40;;
11811;SDS011;5963;50.184;9.162;2023-02-03T07:29:09;0.40;;;0.20;;
11811;SDS011;5963;50.184;9.162;2023-02-03T07:31:39;0.40;;;0.20;;
11811;SDS011;5963;50.184;9.162;2023-02-03T07:34:11;0.60;;;0.30;;
11811;SDS011;5963;50.184;9.162;2023-02-03T07:36:43;0.40;;;0.30;;
11811;SDS011;5963;50.184;9.162;2023-02-03T07:39:13;0.47;;;0.30;;
11811;SDS011;5963;50.184;9.162;2023-02-03T07:41:43;0.40;;;0.30;;
11811;SDS011;5963;50.184;9.162;2023-02-03T07:44:13;0.80;;;0.20;;
11811;SDS011;5963;50.184;9.162;2023-02-03T07:46:43;0.50;;;0.30;;
11811;SDS011;5963;50.184;9.162;2023-02-03T07:49:17;0.40;;;0.20;;
11811;SDS011;5963;50.184;9.162;2023-02-03T07:51:48;0.40;;;0.30;;
11811;SDS011;5963;50.184;9.162;2023-02-03T07:54:20;0.40;;;0.30;;
11811;SDS011;5963;50.184;9.162;2023-02-03T07:56:50;0.40;;;0.20;;
11811;SDS011;5963;50.184;9.162;2023-02-03T07:59:22;0.40;;;0.20;;
11811;SDS011;5963;50.184;9.162;2023-02-03T08:01:54;0.90;;;0.40;;
11811;SDS011;5963;50.184;9.162;2023-02-03T08:04:24;0.70;;;0.60;;
11811;SDS011;5963;50.184;9.162;2023-02-03T08:06:55;0.40;;;0.20;;
11811;SDS011;5963;50.184;9.162;2023-02-03T08:09:25;1.17;;;0.30;;
11811;SDS011;5963;50.184;9.162;2023-02-03T08:11:58;0.40;;;0.20;;
11811;SDS011;5963;50.184;9.162;2023-02-03T08:14:28;0.40;;;0.20;;
11811;SDS011;5963;50.184;9.162;2023-02-03T08:16:58;0.40;;;0.30;;
11811;SDS011;5963;50.184;9.162;2023-02-03T08:19:28;0.40;;;0.30;;
11811;SDS011;5963;50.184;9.162;2023-02-03T08:22:00;0.70;;;0.40;;
11811;SDS011;5963;50.184;9.162;2023-02-03T08:24:30;0.60;;;0.60;;
11811;SDS011;5963;50.184;9.162;2023-02-03T08:27:00;0.40;;;0.20;;
11811;SDS011;5963;50.184;9.162;2023-02-03T08:29:34;0.60;;;0.60;;
11811;SDS011;5963;50.184;9.162;2023-02-03T08:32:07;0.40;;;0.20;;
11811;SDS011;5963;50.184;9.162;2023-02-03T08:34:40;0.55;;;0.32;;
11811;SDS011;5963;50.184;9.162;2023-02-03T08:37:12;0.60;;;0.30;;
11811;SDS011;5963;50.184;9.162;2023-02-03T08:39:43;0.40;;;0.20;;
11811;SDS011;5963;50.184;9.162;2023-02-03T08:42:14;0.40;;;0.30;;
11811;SDS011;5963;50.184;9.162;2023-02-03T08:44:44;0.40;;;0.20;;
11811;SDS011;5963;50.184;9.162;2023-02-03T08:47:14;0.40;;;0.20;;
11811;SDS011;5963;50.184;9.162;2023-02-03T08:49:45;0.40;;;0.20;;
11811;SDS011;5963;50.184;9.162;2023-02-03T08:52:19;0.50;;;0.30;;
11811;SDS011;5963;50.184;9.162;2023-02-03T08:54:54;0.40;;;0.30;;
11811;SDS011;5963;50.184;9.162;2023-02-03T08:57:24;0.40;;;0.30;;
11811;SDS011;5963;50.184;9.162;2023-02-03T08:59:57;0.40;;;0.30;;
11811;SDS011;5963;50.184;9.162;2023-02-03T09:02:31;0.40;;;0.30;;
11811;SDS011;5963;50.184;9.162;2023-02-03T09:05:01;0.40;;;0.20;;
11811;SDS011;5963;50.184;9.162;2023-02-03T09:07:34;0.50;;;0.30;;
11811;SDS011;5963;50.184;9.162;2023-02-03T09:10:04;0.40;;;0.30;;
11811;SDS011;5963;50.184;9.162;2023-02-03T09:12:35;0.77;;;0.47;;
11811;SDS011;5963;50.184;9.162;2023-02-03T09:15:05;0.40;;;0.30;;
11811;SDS011;5963;50.184;9.162;2023-02-03T09:17:36;0.40;;;0.30;;
11811;SDS011;5963;50.184;9.162;2023-02-03T09:20:06;0.40;;;0.20;;
11811;SDS011;5963;50.184;9.162;2023-02-03T09:22:43;0.40;;;0.20;;
11811;SDS011;5963;50.184;9.162;2023-02-03T09:25:13;0.40;;;0.30;;
11811;SDS011;5963;50.184;9.162;2023-02-03T09:27:43;0.40;;;0.30;;
11811;SDS011;5963;50.184;9.162;2023-02-03T09:30:17;0.40;;;0.20;;
11811;SDS011;5963;50.184;9.162;2023-02-03T09:32:47;1.00;;;0.70;;
11811;SDS011;5963;50.184;9.162;2023-02-03T09:35:22;0.40;;;0.30;;
11811;SDS011;5963;50.184;9.162;2023-02-03T09:37:55;0.40;;;0.20;;
11811;SDS011;5963;50.184;9.162;2023-02-03T09:40:28;0.40;;;0.20;;
11811;SDS011;5963;50.184;9.162;2023-02-03T09:43:06;0.43;;;0.28;;
11811;SDS011;5963;50.184;9.162;2023-02-03T09:45:44;0.40;;;0.20;;
11811;SDS011;5963;50.184;9.162;2023-02-03T09:48:17;0.40;;;0.30;;
11811;SDS011;5963;50.184;9.162;2023-02-03T09:50:53;0.40;;;0.30;;
11811;SDS011;5963;50.184;9.162;2023-02-03T09:53:26;0.40;;;0.20;;
11811;SDS011;5963;50.184;9.162;2023-02-03T09:56:00;0.40;;;0.20;;
11811;SDS011;5963;50.184;9.162;2023-02-03T09:58:31;0.70;;;0.65;;
11811;SDS011;5963;50.184;9.162;2023-02-03T10:01:02;0.40;;;0.20;;
11811;SDS011;5963;50.184;9.162;2023-02-03T10:03:38;0.40;;;0.30;;
11811;SDS011;5963;50.184;9.162;2023-02-03T10:06:19;0.40;;;0.20;;
11811;SDS011;5963;50.184;9.162;2023-02-03T10:09:17;0.40;;;0.30;;
11811;SDS011;5963;50.184;9.162;2023-02-03T10:12:03;0.40;;;0.20;;
11811;SDS011;5963;50.184;9.162;2023-02-03T10:14:51;0.40;;;0.20;;
11811;SDS011;5963;50.184;9.162;2023-02-03T10:17:31;0.40;;;0.20;;
11811;SDS011;5963;50.184;9.162;2023-02-03T10:20:10;0.40;;;0.20;;
11811;SDS011;5963;50.184;9.162;2023-02-03T10:22:47;0.40;;;0.20;;
11811;SDS011;5963;50.184;9.162;2023-02-03T10:25:26;0.40;;;0.30;;
11811;SDS011;5963;50.184;9.162;2023-02-03T10:28:03;0.40;;;0.20;;
11811;SDS011;5963;50.184;9.162;2023-02-03T10:30:41;1.00;;;0.90;;
11811;SDS011;5963;50.184;9.162;2023-02-03T10:33:20;0.40;;;0.20;;
11811;SDS011;5963;50.184;9.162;2023-02-03T10:35:52;0.50;;;0.30;;
11811;SDS011;5963;50.184;9.162;2023-02-03T10:38:34;0.50;;;0.50;;
11811;SDS011;5963;50.184;9.162;2023-02-03T10:41:11;0.40;;;0.20;;
11811;SDS011;5963;50.184;9.162;2023-02-03T10:43:41;0.50;;;0.50;;
11811;SDS011;5963;50.184;9.162;2023-02-03T10:46:17;0.40;;;0.20;;
11811;SDS011;5963;50.184;9.162;2023-02-03T10:48:52;0.50;;;0.30;;
11811;SDS011;5963;50.184;9.162;2023-02-03T10:51:23;0.40;;;0.30;;
11811;SDS011;5963;50.184;9.162;2023-02-03T10:53:55;0.40;;;0.20;;
11811;SDS011;5963;50.184;9.162;2023-02-03T10:56:29;0.40;;;0.20;;
11811;SDS011;5963;50.184;9.162;2023-02-03T10:59:03;0.40;;;0.30;;
11811;SDS011;5963;50.184;9.162;2023-02-03T11:01:37;0.40;;;0.20;;
11811;SDS011;5963;50.184;9.162;2023-02-03T11:04:21;1.90;;;1.00;;
11811;SDS011;5963;50.184;9.162;2023-02-03T11:06:56;0.40;;;0.30;;
11811;SDS011;5963;50.184;9.162;2023-02-03T11:09:36;0.40;;;0.20;;
11811;SDS011;5963;50.184;9.162;2023-02-03T11:12:11;0.40;;;0.20;;
11811;SDS011;5963;50.184;9.162;2023-02-03T11:14:43;0.40;;;0.30;;
11811;SDS011;5963;50.184;9.162;2023-02-03T11:17:15;0.40;;;0.30;;
11811;SDS011;5963;50.184;9.162;2023-02-03T11:19:48;0.90;;;0.80;;
11811;SDS011;5963;50.184;9.162;2023-02-03T11:22:28;0.40;;;0.30;;
11811;SDS011;5963;50.184;9.162;2023-02-03T11:25:04;0.40;;;0.20;;
11811;SDS011;5963;50.184;9.162;2023-02-03T11:27:44;2.70;;;0.40;;
11811;SDS011;5963;50.184;9.162;2023-02-03T11:30:15;5.40;;;0.80;;
11811;SDS011;5963;50.184;9.162;2023-02-03T11:32:53;0.80;;;0.80;;
11811;SDS011;5963;50.184;9.162;2023-02-03T11:35:24;0.40;;;0.20;;
11811;SDS011;5963;50.184;9.162;2023-02-03T11:38:00;0.40;;;0.30;;
11811;SDS011;5963;50.184;9.162;2023-02-03T11:40:30;0.40;;;0.30;;
11811;SDS011;5963;50.184;9.162;2023-02-03T11:43:12;0.40;;;0.20;;
11811;SDS011;5963;50.184;9.162;2023-02-03T11:45:45;0.40;;;0.30;;
11811;SDS011;5963;50.184;9.162;2023-02-03T11:48:23;0.40;;;0.30;;
11811;SDS011;5963;50.184;9.162;2023-02-03T11:51:09;0.40;;;0.27;;
11811;SDS011;5963;50.184;9.162;2023-02-03T11:53:52;0.70;;;0.40;;
11811;SDS011;5963;50.184;9.162;2023-02-03T11:56:36;0.90;;;0.90;;
11811;SDS011;5963;50.184;9.162;2023-02-03T11:59:27;0.40;;;0.30;;
11811;SDS011;5963;50.184;9.162;2023-02-03T12:05:03;0.40;;;0.32;;
11811;SDS011;5963;50.184;9.162;2023-02-03T12:07:48;0.50;;;0.38;;
11811;SDS011;5963;50.184;9.162;2023-02-03T12:10:33;0.40;;;0.25;;
11811;SDS011;5963;50.184;9.162;2023-02-03T12:13:14;1.17;;;0.40;;
11811;SDS011;5963;50.184;9.162;2023-02-03T12:16:00;0.60;;;0.30;;
11811;SDS011;5963;50.184;9.162;2023-02-03T12:18:54;0.40;;;0.20;;
11811;SDS011;5963;50.184;9.162;2023-02-03T12:21:40;0.40;;;0.30;;
11811;SDS011;5963;50.184;9.162;2023-02-03T12:24:23;0.40;;;0.20;;
11811;SDS011;5963;50.184;9.162;2023-02-03T12:27:05;0.40;;;0.20;;
11811;SDS011;5963;50.184;9.162;2023-02-03T12:29:44;0.40;;;0.20;;
11811;SDS011;5963;50.184;9.162;2023-02-03T12:32:22;0.40;;;0.20;;
11811;SDS011;5963;50.184;9.162;2023-02-03T12:34:58;0.40;;;0.30;;
11811;SDS011;5963;50.184;9.162;2023-02-03T12:37:36;0.40;;;0.20;;
11811;SDS011;5963;50.184;9.162;2023-02-03T12:40:12;0.40;;;0.20;;
11811;SDS011;5963;50.184;9.162;2023-02-03T12:42:46;0.40;;;0.30;;
11811;SDS011;5963;50.184;9.162;2023-02-03T12:45:20;0.40;;;0.20;;
11811;SDS011;5963;50.184;9.162;2023-02-03T12:47:59;0.40;;;0.30;;
11811;SDS011;5963;50.184;9.162;2023-02-03T12:50:33;0.47;;;0.30;;
11811;SDS011;5963;50.184;9.162;2023-02-03T12:53:08;0.40;;;0.20;;
11811;SDS011;5963;50.184;9.162;2023-02-03T12:55:46;0.80;;;0.60;;
11811;SDS011;5963;50.184;9.162;2023-02-03T12:58:22;0.40;;;0.20;;
11811;SDS011;5963;50.184;9.162;2023-02-03T13:00:55;0.40;;;0.30;;
11811;SDS011;5963;50.184;9.162;2023-02-03T13:03:34;0.40;;;0.20;;
11811;SDS011;5963;50.184;9.162;2023-02-03T13:06:10;0.50;;;0.40;;
11811;SDS011;5963;50.184;9.162;2023-02-03T13:08:48;0.40;;;0.20;;
11811;SDS011;5963;50.184;9.162;2023-02-03T13:11:26;0.40;;;0.30;;
11811;SDS011;5963;50.184;9.162;2023-02-03T13:14:04;0.40;;;0.20;;
11811;SDS011;5963;50.184;9.162;2023-02-03T13:16:42;0.50;;;0.30;;
11811;SDS011;5963;50.184;9.162;2023-02-03T13:19:21;0.40;;;0.30;;
11811;SDS011;5963;50.184;9.162;2023-02-03T13:21:54;0.40;;;0.20;;
11811;SDS011;5963;50.184;9.162;2023-02-03T13:24:24;0.40;;;0.30;;
11811;SDS011;5963;50.184;9.162;2023-02-03T13:27:05;0.40;;;0.30;;
11811;SDS011;5963;50.184;9.162;2023-02-03T13:29:51;0.40;;;0.30;;
11811;SDS011;5963;50.184;9.162;2023-02-03T13:32:34;0.50;;;0.30;;
11811;SDS011;5963;50.184;9.162;2023-02-03T13:38:23;1.70;;;1.60;;
11811;SDS011;5963;50.184;9.162;2023-02-03T13:41:04;0.40;;;0.20;;
11811;SDS011;5963;50.184;9.162;2023-02-03T13:43:43;0.40;;;0.30;;
11811;SDS011;5963;50.184;9.162;2023-02-03T13:46:18;0.40;;;0.40;;
11811;SDS011;5963;50.184;9.162;2023-02-03T13:48:51;0.40;;;0.20;;
11811;SDS011;5963;50.184;9.162;2023-02-03T13:51:24;1.10;;;0.60;;
11811;SDS011;5963;50.184;9.162;2023-02-03T13:54:02;0.40;;;0.30;;
11811;SDS011;5963;50.184;9.162;2023-02-03T13:56:34;0.40;;;0.20;;
11811;SDS011;5963;50.184;9.162;2023-02-03T13:59:05;0.40;;;0.20;;
11811;SDS011;5963;50.184;9.162;2023-02-03T14:20:32;0.60;;;0.50;;
11811;SDS011;5963;50.184;9.162;2023-02-03T14:23:26;0.50;;;0.40;;
11811;SDS011;5963;50.184;9.162;2023-02-03T14:26:04;0.40;;;0.20;;
11811;SDS011;5963;50.184;9.162;2023-02-03T14:28:42;0.50;;;0.40;;
11811;SDS011;5963;50.184;9.162;2023-02-03T14:31:18;0.40;;;0.20;;
11811;SDS011;5963;50.184;9.162;2023-02-03T14:33:52;0.40;;;0.20;;
11811;SDS011;5963;50.184;9.162;2023-02-03T14:36:38;0.40;;;0.20;;
11811;SDS011;5963;50.184;9.162;2023-02-03T14:45:41;0.40;;;0.30;;
11811;SDS011;5963;50.184;9.162;2023-02-03T14:48:32;0.40;;;0.20;;
11811;SDS011;5963;50.184;9.162;2023-02-03T14:51:12;0.50;;;0.50;;
11811;SDS011;5963;50.184;9.162;2023-02-03T14:53:55;0.40;;;0.20;;
11811;SDS011;5963;50.184;9.162;2023-02-03T14:56:37;0.40;;;0.20;;
11811;SDS011;5963;50.184;9.162;2023-02-03T14:59:38;0.40;;;0.20;;
11811;SDS011;5963;50.184;9.162;2023-02-03T15:02:20;0.80;;;0.40;;
11811;SDS011;5963;50.184;9.162;2023-02-03T15:04:51;0.50;;;0.30;;
11811;SDS011;5963;50.184;9.162;2023-02-03T15:07:39;0.40;;;0.25;;
11811;SDS011;5963;50.184;9.162;2023-02-03T15:10:13;0.40;;;0.30;;
11811;SDS011;5963;50.184;9.162;2023-02-03T15:12:43;0.40;;;0.30;;
11811;SDS011;5963;50.184;9.162;2023-02-03T15:15:19;0.50;;;0.30;;
11811;SDS011;5963;50.184;9.162;2023-02-03T15:17:52;0.50;;;0.40;;
11811;SDS011;5963;50.184;9.162;2023-02-03T15:20:34;2.00;;;0.70;;
11811;SDS011;5963;50.184;9.162;2023-02-03T15:23:16;0.40;;;0.20;;
11811;SDS011;5963;50.184;9.162;2023-02-03T15:25:51;0.40;;;0.20;;
11811;SDS011;5963;50.184;9.162;2023-02-03T15:28:21;0.40;;;0.20;;
11811;SDS011;5963;50.184;9.162;2023-02-03T15:30:53;0.40;;;0.20;;
11811;SDS011;5963;50.184;9.162;2023-02-03T15:33:33;0.40;;;0.20;;
11811;SDS011;5963;50.184;9.162;2023-02-03T15:36:05;0.40;;;0.20;;
11811;SDS011;5963;50.184;9.162;2023-02-03T15:38:42;0.40;;;0.30;;
11811;SDS011;5963;50.184;9.162;2023-02-03T15:41:17;0.50;;;0.40;;
11811;SDS011;5963;50.184;9.162;2023-02-03T15:43:51;0.50;;;0.40;;
11811;SDS011;5963;50.184;9.162;2023-02-03T15:46:27;0.40;;;0.20;;
11811;SDS011;5963;50.184;9.162;2023-02-03T15:49:05;0.40;;;0.30;;
11811;SDS011;5963;50.184;9.162;2023-02-03T15:51:42;0.40;;;0.20;;
11811;SDS011;5963;50.184;9.162;2023-02-03T15:54:16;0.40;;;0.30;;
11811;SDS011;5963;50.184;9.162;2023-02-03T15:56:56;0.50;;;0.40;;
11811;SDS011;5963;50.184;9.162;2023-02-03T15:59:33;0.90;;;0.40;;
11811;SDS011;5963;50.184;9.162;2023-02-03T16:02:06;0.50;;;0.30;;
11811;SDS011;5963;50.184;9.162;2023-02-03T16:04:43;2.40;;;0.80;;
11811;SDS011;5963;50.184;9.162;2023-02-03T16:07:16;0.60;;;0.60;;
11811;SDS011;5963;50.184;9.162;2023-02-03T16:09:50;0.40;;;0.20;;
11811;SDS011;5963;50.184;9.162;2023-02-03T16:12:21;0.82;;;0.50;;
11811;SDS011;5963;50.184;9.162;2023-02-03T16:14:53;0.40;;;0.30;;
11811;SDS011;5963;50.184;9.162;2023-02-03T16:17:25;0.40;;;0.20;;
11811;SDS011;5963;50.184;9.162;2023-02-03T16:23:00;0.40;;;0.30;;